createdAt,value
2022-08-02T00:01:02.984Z,100445.84
2022-08-02T00:03:31.737Z,100449.19
2022-08-02T00:06:01.477Z,100447.22
2022-08-02T00:08:29.577Z,100450.00
2022-08-02T00:11:00.226Z,100457.06
2022-08-02T00:13:28.659Z,100455.84
2022-08-02T00:15:56.639Z,100466.91
2022-08-02T00:18:24.917Z,100467.19
2022-08-02T00:20:53.068Z,100474.41
2022-08-02T00:23:21.217Z,100478.69
2022-08-02T00:25:55.419Z,100480.38
2022-08-02T00:28:27.811Z,100487.00
2022-08-02T00:30:59.802Z,100479.16
2022-08-02T00:34:27.275Z,100483.31
2022-08-02T00:36:16.269Z,100483.47
2022-08-02T00:38:44.711Z,100471.13
2022-08-02T00:41:16.850Z,100469.75
2022-08-02T00:43:47.338Z,100475.41
2022-08-02T00:46:16.956Z,100481.44
2022-08-02T00:48:45.492Z,100477.09
2022-08-02T00:51:14.857Z,100482.13
2022-08-02T00:53:43.296Z,100477.09
2022-08-02T00:56:11.475Z,100482.53
2022-08-02T00:58:39.993Z,100487.66
2022-08-02T01:01:08.312Z,100489.66
2022-08-02T01:03:36.481Z,100490.22
2022-08-02T01:06:12.091Z,100486.22
2022-08-02T01:08:41.403Z,100487.31
2022-08-02T01:11:12.384Z,100484.56
2022-08-02T01:13:40.717Z,100485.03
2022-08-02T01:16:16.838Z,100490.56
2022-08-02T01:18:51.597Z,100488.44
2022-08-02T01:21:44.274Z,100484.59
2022-08-02T01:24:59.594Z,100488.13
2022-08-02T01:28:06.427Z,100495.31
2022-08-02T01:30:36.633Z,100496.59
2022-08-02T01:33:07.244Z,100501.59
2022-08-02T01:35:47.177Z,100508.81
2022-08-02T01:38:29.843Z,100507.31
2022-08-02T01:41:00.228Z,100514.03
2022-08-02T01:43:31.707Z,100509.75
2022-08-02T01:46:01.886Z,100513.78
2022-08-02T01:48:32.544Z,100508.06
2022-08-02T01:51:03.165Z,100513.63
2022-08-02T01:53:33.314Z,100516.31
2022-08-02T01:56:03.659Z,100513.75
2022-08-02T01:58:37.038Z,100519.44
2022-08-02T02:01:08.429Z,100520.03
2022-08-02T02:03:41.692Z,100518.88
2022-08-02T02:06:12.046Z,100529.22
2022-08-02T02:08:43.925Z,100528.69
2022-08-02T02:12:11.039Z,100529.63
2022-08-02T02:14:04.209Z,100527.97
2022-08-02T02:16:33.795Z,100535.28
2022-08-02T02:19:03.886Z,100542.66
2022-08-02T02:21:32.235Z,100544.81
2022-08-02T02:24:07.187Z,100545.59
2022-08-02T02:26:49.308Z,100554.63
2022-08-02T02:29:24.345Z,100552.22
2022-08-02T02:31:55.666Z,100553.84
2022-08-02T02:34:32.454Z,100556.25
2022-08-02T02:37:05.316Z,100559.22
2022-08-02T02:39:34.078Z,100558.16
2022-08-02T02:42:04.686Z,100550.88
2022-08-02T02:44:36.037Z,100557.13
2022-08-02T02:47:05.706Z,100558.31
2022-08-02T02:49:35.564Z,100552.59
2022-08-02T02:52:06.319Z,100562.28
2022-08-02T02:54:36.786Z,100552.78
2022-08-02T02:57:07.032Z,100555.06
2022-08-02T02:59:36.543Z,100560.03
2022-08-02T03:02:19.168Z,100557.06
2022-08-02T03:04:56.012Z,100548.91
2022-08-02T03:07:27.212Z,100550.31
2022-08-02T03:09:55.680Z,100557.19
2022-08-02T03:12:30.586Z,100545.41
2022-08-02T03:15:08.030Z,100545.06
2022-08-02T03:17:41.984Z,100532.84
2022-08-02T03:20:16.181Z,100542.06
2022-08-02T03:22:46.165Z,100543.16
2022-08-02T03:25:16.532Z,100545.28
2022-08-02T03:27:44.947Z,100549.91
2022-08-02T03:30:14.915Z,100541.06
2022-08-02T03:32:45.390Z,100549.25
2022-08-02T03:35:22.861Z,100545.03
2022-08-02T03:37:56.831Z,100542.72
2022-08-02T03:40:28.007Z,100535.84
2022-08-02T03:42:57.023Z,100539.44
2022-08-02T03:45:27.895Z,100546.28
2022-08-02T03:47:58.727Z,100541.09
2022-08-02T03:50:28.257Z,100545.28
2022-08-02T03:52:57.323Z,100558.03
2022-08-02T03:55:25.480Z,100566.63
2022-08-02T03:57:53.824Z,100578.41
2022-08-02T04:00:23.453Z,100589.16
2022-08-02T04:02:51.979Z,100603.91
2022-08-02T04:05:20.753Z,100609.28
2022-08-02T04:08:33.365Z,100629.56
2022-08-02T04:10:56.666Z,100637.09
2022-08-02T04:13:36.022Z,100658.06
2022-08-02T04:16:12.963Z,100669.34
2022-08-02T04:18:46.976Z,100673.72
2022-08-02T04:21:17.905Z,100692.06
2022-08-02T04:23:48.044Z,100703.56
2022-08-02T04:26:19.070Z,100701.63
2022-08-02T04:28:56.995Z,100688.97
2022-08-02T04:31:26.866Z,100679.03
2022-08-02T04:33:55.715Z,100664.44
2022-08-02T04:36:31.576Z,100666.44
2022-08-02T04:39:00.714Z,100670.59
2022-08-02T04:41:43.731Z,100680.88
2022-08-02T04:44:13.504Z,100695.09
2022-08-02T04:46:43.464Z,100691.41
2022-08-02T04:49:12.634Z,100698.69
2022-08-02T04:51:43.025Z,100700.94
2022-08-02T04:54:12.144Z,100702.38
2022-08-02T04:56:40.750Z,100709.34
2022-08-02T04:59:09.089Z,100714.03
2022-08-02T05:01:37.134Z,100714.81
2022-08-02T05:04:06.172Z,100724.00
2022-08-02T05:06:34.671Z,100728.16
2022-08-02T05:09:03.229Z,100723.22
2022-08-02T05:11:36.507Z,100721.16
2022-08-02T05:14:06.469Z,100721.66
2022-08-02T05:16:34.555Z,100716.09
2022-08-02T05:19:03.338Z,100713.81
2022-08-02T05:21:32.140Z,100707.41
2022-08-02T05:24:00.446Z,100715.63
2022-08-02T05:26:28.684Z,100717.47
2022-08-02T05:28:57.050Z,100722.66
2022-08-02T05:31:25.111Z,100739.69
2022-08-02T05:33:53.341Z,100734.03
2022-08-02T05:36:22.118Z,100744.84
2022-08-02T05:38:59.600Z,100772.66
2022-08-02T05:41:33.899Z,100794.69
2022-08-02T05:44:02.818Z,100812.31
2022-08-02T05:46:31.087Z,100837.78
2022-08-02T05:48:59.487Z,100827.50
2022-08-02T05:51:38.496Z,100833.59
2022-08-02T05:54:06.957Z,100858.19
2022-08-02T05:56:45.819Z,100849.53
2022-08-02T05:59:35.942Z,100850.75
2022-08-02T06:02:12.356Z,100848.75
2022-08-02T06:05:06.016Z,100848.50
2022-08-02T06:07:37.050Z,100845.88
2022-08-02T06:10:07.469Z,100835.03
2022-08-02T06:12:48.611Z,100841.94
2022-08-02T06:15:20.090Z,100842.69
2022-08-02T06:17:48.518Z,100829.94
2022-08-02T06:20:21.328Z,100836.47
2022-08-02T06:22:50.598Z,100838.63
2022-08-02T06:25:50.542Z,100844.53
2022-08-02T06:28:10.383Z,100843.00
2022-08-02T06:30:41.101Z,100833.25
2022-08-02T06:33:09.237Z,100824.31
2022-08-02T06:36:05.485Z,100825.00
2022-08-02T06:38:42.288Z,100839.81
2022-08-02T06:41:18.976Z,100842.41
2022-08-02T06:44:26.302Z,100851.03
2022-08-02T06:47:11.090Z,100853.94
2022-08-02T06:49:52.953Z,100847.81
2022-08-02T06:52:29.844Z,100833.56
2022-08-02T06:55:01.563Z,100836.66
2022-08-02T06:57:31.031Z,100846.84
2022-08-02T07:00:05.257Z,100844.63
2022-08-02T07:02:37.027Z,100855.00
2022-08-02T07:05:05.597Z,100851.41
2022-08-02T07:07:34.060Z,100849.00
2022-08-02T07:10:02.427Z,100851.69
2022-08-02T07:12:33.343Z,100853.78
2022-08-02T07:15:03.575Z,100834.41
2022-08-02T07:17:32.281Z,100824.69
2022-08-02T07:20:01.109Z,100829.00
2022-08-02T07:22:29.398Z,100838.78
2022-08-02T07:25:00.375Z,100832.50
2022-08-02T07:27:29.466Z,100831.53
2022-08-02T07:29:58.056Z,100826.00
2022-08-02T07:32:31.063Z,100838.00
2022-08-02T07:35:01.484Z,100845.59
2022-08-02T07:37:55.417Z,100840.81
2022-08-02T07:40:27.164Z,100826.81
2022-08-02T07:43:03.009Z,100830.66
2022-08-02T07:45:35.797Z,100843.81
2022-08-02T07:48:04.578Z,100827.78
2022-08-02T07:50:32.748Z,100813.03
2022-08-02T07:53:02.737Z,100826.56
2022-08-02T07:55:39.541Z,100822.84
2022-08-02T07:58:13.542Z,100818.28
2022-08-02T08:00:44.302Z,100812.31
2022-08-02T08:03:13.117Z,100807.81
2022-08-02T08:05:41.536Z,100801.81
2022-08-02T08:08:16.681Z,100810.69
2022-08-02T08:10:47.004Z,100803.13
2022-08-02T08:13:16.256Z,100788.16
2022-08-02T08:15:51.522Z,100795.94
2022-08-02T08:18:22.580Z,100791.38
2022-08-02T08:20:52.106Z,100796.63
2022-08-02T08:23:20.351Z,100812.50
2022-08-02T08:25:48.879Z,100811.84
2022-08-02T08:28:17.028Z,100810.59
2022-08-02T08:30:45.097Z,100806.63
2022-08-02T08:33:14.197Z,100796.00
2022-08-02T08:35:42.319Z,100802.56
2022-08-02T08:38:10.527Z,100799.69
2022-08-02T08:40:39.118Z,100794.00
2022-08-02T08:43:07.357Z,100798.97
2022-08-02T08:45:35.729Z,100806.38
2022-08-02T08:48:13.998Z,100807.88
2022-08-02T08:50:53.978Z,100809.88
2022-08-02T08:53:36.556Z,100804.56
2022-08-02T08:56:06.267Z,100818.97
2022-08-02T08:58:34.758Z,100823.44
2022-08-02T09:01:03.098Z,100816.69
2022-08-02T09:03:34.047Z,100815.72
2022-08-02T09:06:03.637Z,100816.06
2022-08-02T09:08:33.797Z,100834.97
2022-08-02T09:11:02.088Z,100839.19
2022-08-02T09:13:43.545Z,100831.41
2022-08-02T09:16:14.661Z,100835.53
2022-08-02T09:18:46.465Z,100824.28
2022-08-02T09:21:17.377Z,100830.22
2022-08-02T09:23:51.885Z,100825.06
2022-08-02T09:26:22.658Z,100831.59
2022-08-02T09:28:53.396Z,100821.69
2022-08-02T09:31:23.798Z,100836.72
2022-08-02T09:34:00.029Z,100834.22
2022-08-02T09:36:38.917Z,100842.16
2022-08-02T09:39:17.809Z,100840.03
2022-08-02T09:41:46.221Z,100843.97
2022-08-02T09:44:16.810Z,100843.97
2022-08-02T09:46:46.898Z,100844.19
2022-08-02T09:49:18.610Z,100843.31
2022-08-02T09:51:46.999Z,100839.00
2022-08-02T09:54:19.838Z,100830.81
2022-08-02T09:56:50.772Z,100831.41
2022-08-02T09:59:21.597Z,100830.22
2022-08-02T10:01:51.226Z,100837.28
2022-08-02T10:04:34.286Z,100829.63
2022-08-02T10:07:05.390Z,100830.72
2022-08-02T10:09:34.977Z,100829.00
2022-08-02T10:12:04.804Z,100821.03
2022-08-02T10:14:35.846Z,100810.16
2022-08-02T10:17:05.477Z,100814.41
2022-08-02T10:20:00.805Z,100807.88
2022-08-02T10:22:24.825Z,100801.84
2022-08-02T10:24:53.778Z,100801.84
2022-08-02T10:27:26.144Z,100810.22
2022-08-02T10:29:58.109Z,100801.50
2022-08-02T10:32:42.466Z,100797.63
2022-08-02T10:35:19.451Z,100796.41
2022-08-02T10:37:58.708Z,100789.84
2022-08-02T10:40:47.600Z,100791.72
2022-08-02T10:43:43.387Z,100785.50
2022-08-02T10:46:34.577Z,100782.72
2022-08-02T10:49:38.024Z,100770.13
2022-08-02T10:52:03.239Z,100781.16
2022-08-02T10:54:42.178Z,100767.81
2022-08-02T10:57:21.627Z,100764.69
2022-08-02T10:59:52.986Z,100769.34
2022-08-02T11:02:56.787Z,100757.44
2022-08-02T11:05:43.007Z,100765.91
2022-08-02T11:08:20.157Z,100754.78
2022-08-02T11:10:48.935Z,100756.78
2022-08-02T11:13:21.946Z,100754.06
2022-08-02T11:15:57.616Z,100748.13
2022-08-02T11:18:52.020Z,100744.56
2022-08-02T11:21:29.249Z,100746.00
2022-08-02T11:24:29.199Z,100751.66
2022-08-02T11:26:59.506Z,100748.88
2022-08-02T11:29:42.470Z,100752.66
2022-08-02T11:32:30.642Z,100749.44
2022-08-02T11:35:03.706Z,100741.47
2022-08-02T11:37:38.167Z,100737.91
2022-08-02T11:40:19.802Z,100740.66
2022-08-02T11:42:54.007Z,100742.66
2022-08-02T11:45:29.799Z,100747.09
2022-08-02T11:47:58.526Z,100748.53
2022-08-02T11:50:30.133Z,100741.81
2022-08-02T11:52:59.280Z,100739.72
2022-08-02T11:55:29.357Z,100741.81
2022-08-02T11:58:05.675Z,100742.19
2022-08-02T12:00:34.956Z,100738.50
2022-08-02T12:03:03.488Z,100741.13
2022-08-02T12:06:04.381Z,100742.69
2022-08-02T12:08:25.537Z,100741.94
2022-08-02T12:10:54.930Z,100738.94
2022-08-02T12:13:23.844Z,100737.94
2022-08-02T12:15:52.159Z,100745.03
2022-08-02T12:18:41.589Z,100736.22
2022-08-02T12:21:25.781Z,100733.78
2022-08-02T12:23:59.623Z,100739.50
2022-08-02T12:26:30.775Z,100730.88
2022-08-02T12:28:59.749Z,100731.16
2022-08-02T12:31:56.776Z,100717.66
2022-08-02T12:34:31.447Z,100717.75
2022-08-02T12:37:04.446Z,100722.81
2022-08-02T12:39:44.509Z,100723.91
2022-08-02T12:42:15.718Z,100721.66
2022-08-02T12:44:56.326Z,100710.41
2022-08-02T12:47:24.847Z,100710.06
2022-08-02T12:50:20.963Z,100711.28
2022-08-02T12:52:49.830Z,100703.16
2022-08-02T12:55:26.167Z,100707.91
2022-08-02T12:58:14.481Z,100692.31
2022-08-02T13:00:44.548Z,100694.34
2022-08-02T13:04:10.420Z,100691.56
2022-08-02T13:06:12.200Z,100693.53
2022-08-02T13:08:51.817Z,100698.00
2022-08-02T13:11:20.617Z,100687.94
2022-08-02T13:13:49.723Z,100681.19
2022-08-02T13:16:17.959Z,100685.69
2022-08-02T13:19:00.261Z,100692.75
2022-08-02T13:21:41.023Z,100682.53
2022-08-02T13:24:27.370Z,100686.50
2022-08-02T13:27:08.340Z,100681.91
2022-08-02T13:29:38.528Z,100675.09
2022-08-02T13:32:06.853Z,100684.28
2022-08-02T13:34:35.157Z,100679.81
2022-08-02T13:37:04.892Z,100675.03
2022-08-02T13:39:33.125Z,100666.63
2022-08-02T13:42:01.307Z,100666.91
2022-08-02T13:44:29.870Z,100666.28
2022-08-02T13:46:58.422Z,100668.63
2022-08-02T13:49:51.425Z,100661.78
2022-08-02T13:52:15.416Z,100668.75
2022-08-02T13:54:44.106Z,100671.28
2022-08-02T13:57:12.267Z,100665.84
2022-08-02T13:59:56.154Z,100665.28
2022-08-02T14:02:29.567Z,100669.81
2022-08-02T14:04:57.918Z,100661.50
2022-08-02T14:07:26.135Z,100658.34
2022-08-02T14:09:54.157Z,100659.44
2022-08-02T14:12:22.599Z,100666.81
2022-08-02T14:14:51.110Z,100666.00
2022-08-02T14:17:19.186Z,100658.81
2022-08-02T14:19:47.778Z,100666.25
2022-08-02T14:22:16.068Z,100659.69
2022-08-02T14:24:44.310Z,100652.72
2022-08-02T14:27:12.938Z,100656.59
2022-08-02T14:29:41.079Z,100654.31
2022-08-02T14:32:09.588Z,100644.66
2022-08-02T14:34:38.178Z,100642.53
2022-08-02T14:37:06.334Z,100640.44
2022-08-02T14:39:43.372Z,100638.06
2022-08-02T14:42:22.997Z,100644.34
2022-08-02T14:44:52.068Z,100638.53
2022-08-02T14:47:20.179Z,100638.09
2022-08-02T14:49:50.530Z,100637.78
2022-08-02T14:52:19.768Z,100639.91
2022-08-02T14:54:48.034Z,100634.63
2022-08-02T14:57:16.470Z,100629.72
2022-08-02T14:59:45.046Z,100629.56
2022-08-02T15:02:14.027Z,100628.13
2022-08-02T15:04:43.949Z,100635.97
2022-08-02T15:07:14.560Z,100618.63
2022-08-02T15:09:42.739Z,100614.59
2022-08-02T15:12:12.738Z,100624.16
2022-08-02T15:14:41.190Z,100609.34
2022-08-02T15:17:09.737Z,100610.28
2022-08-02T15:19:56.705Z,100618.91
2022-08-02T15:22:27.893Z,100610.34
2022-08-02T15:24:57.913Z,100601.91
2022-08-02T15:27:26.277Z,100605.38
2022-08-02T15:30:00.709Z,100604.34
2022-08-02T15:32:29.581Z,100602.13
2022-08-02T15:34:57.666Z,100605.00
2022-08-02T15:37:30.946Z,100604.19
2022-08-02T15:40:00.667Z,100609.50
2022-08-02T15:42:30.766Z,100603.38
2022-08-02T15:44:59.823Z,100602.00
2022-08-02T15:47:28.493Z,100603.09
2022-08-02T15:49:56.693Z,100598.34
2022-08-02T15:52:27.401Z,100596.19
2022-08-02T15:54:56.421Z,100601.09
2022-08-02T15:57:35.346Z,100610.59
2022-08-02T16:00:06.657Z,100603.22
2022-08-02T16:02:48.057Z,100604.41
2022-08-02T16:05:18.424Z,100596.94
2022-08-02T16:07:46.948Z,100610.06
2022-08-02T16:10:17.251Z,100602.34
2022-08-02T16:12:45.703Z,100606.09
2022-08-02T16:15:13.877Z,100607.22
2022-08-02T16:17:54.501Z,100603.16
2022-08-02T16:20:23.365Z,100604.84
2022-08-02T16:22:51.507Z,100595.25
2022-08-02T16:25:19.681Z,100604.47
2022-08-02T16:27:57.778Z,100601.47
2022-08-02T16:30:36.289Z,100597.81
2022-08-02T16:33:04.909Z,100598.91
2022-08-02T16:35:33.098Z,100598.22
2022-08-02T16:38:01.286Z,100597.66
2022-08-02T16:40:30.890Z,100599.34
2022-08-02T16:43:00.340Z,100594.41
2022-08-02T16:45:29.667Z,100597.16
2022-08-02T16:48:05.200Z,100593.44
2022-08-02T16:50:34.314Z,100599.94
2022-08-02T16:53:07.317Z,100596.28
2022-08-02T16:55:36.772Z,100598.19
2022-08-02T16:58:05.340Z,100596.84
2022-08-02T17:00:38.287Z,100605.84
2022-08-02T17:03:14.718Z,100602.56
2022-08-02T17:05:56.285Z,100600.88
2022-08-02T17:08:31.794Z,100603.94
2022-08-02T17:11:03.850Z,100600.03
2022-08-02T17:13:34.173Z,100609.75
2022-08-02T17:16:26.066Z,100617.75
2022-08-02T17:18:55.616Z,100617.59
2022-08-02T17:21:24.084Z,100623.88
2022-08-02T17:24:07.709Z,100617.91
2022-08-02T17:26:38.247Z,100615.22
2022-08-02T17:29:15.430Z,100625.88
2022-08-02T17:32:05.528Z,100619.91
2022-08-02T17:34:36.618Z,100629.75
2022-08-02T17:37:06.351Z,100626.38
2022-08-02T17:39:44.237Z,100627.09
2022-08-02T17:42:23.668Z,100636.34
2022-08-02T17:44:54.065Z,100630.16
2022-08-02T17:47:23.357Z,100645.53
2022-08-02T17:50:00.111Z,100634.91
2022-08-02T17:52:51.063Z,100639.59
2022-08-02T17:55:18.560Z,100643.81
2022-08-02T17:57:57.417Z,100646.22
2022-08-02T18:00:35.568Z,100644.25
2022-08-02T18:03:10.063Z,100650.00
2022-08-02T18:05:53.007Z,100648.84
2022-08-02T18:08:23.836Z,100650.47
2022-08-02T18:10:56.938Z,100660.22
2022-08-02T18:13:25.840Z,100662.09
2022-08-02T18:16:02.518Z,100656.94
2022-08-02T18:18:32.388Z,100661.81
2022-08-02T18:21:15.994Z,100651.72
2022-08-02T18:23:58.151Z,100653.69
2022-08-02T18:26:28.731Z,100652.47
2022-08-02T18:28:58.992Z,100660.97
2022-08-02T18:31:27.406Z,100663.78
2022-08-02T18:34:01.965Z,100656.53
2022-08-02T18:36:32.482Z,100655.13
2022-08-02T18:39:07.950Z,100662.69
2022-08-02T18:41:38.053Z,100657.78
2022-08-02T18:44:06.620Z,100661.38
2022-08-02T18:46:34.918Z,100657.66
2022-08-02T18:49:13.300Z,100662.59
2022-08-02T18:51:44.356Z,100660.56
2022-08-02T18:54:12.971Z,100664.63
2022-08-02T18:56:47.199Z,100658.75
2022-08-02T18:59:17.262Z,100662.59
2022-08-02T19:01:51.084Z,100666.09
2022-08-02T19:04:27.208Z,100665.53
2022-08-02T19:07:01.734Z,100662.91
2022-08-02T19:09:40.264Z,100671.03
2022-08-02T19:12:11.780Z,100666.63
2022-08-02T19:14:41.271Z,100668.91
2022-08-02T19:17:15.849Z,100678.13
2022-08-02T19:19:58.807Z,100670.16
2022-08-02T19:22:27.326Z,100682.44
2022-08-02T19:25:00.956Z,100675.53
2022-08-02T19:27:32.951Z,100683.22
2022-08-02T19:30:07.650Z,100693.34
2022-08-02T19:32:41.829Z,100696.28
2022-08-02T19:35:30.996Z,100704.88
2022-08-02T19:38:11.330Z,100705.50
2022-08-02T19:40:42.206Z,100706.88
2022-08-02T19:44:25.146Z,100711.47
2022-08-02T19:46:00.609Z,100709.75
2022-08-02T19:48:29.212Z,100721.59
2022-08-02T19:51:01.220Z,100713.28
2022-08-02T19:53:48.299Z,100719.41
2022-08-02T19:56:25.550Z,100719.13
2022-08-02T19:58:57.026Z,100730.66
2022-08-02T20:01:36.585Z,100728.03
2022-08-02T20:04:13.068Z,100735.69
2022-08-02T20:06:49.327Z,100733.56
2022-08-02T20:09:23.726Z,100730.28
2022-08-02T20:12:03.014Z,100733.53
2022-08-02T20:14:31.263Z,100735.91
2022-08-02T20:17:00.339Z,100732.13
2022-08-02T20:19:28.925Z,100742.59
2022-08-02T20:22:00.560Z,100739.88
2022-08-02T20:24:29.814Z,100737.00
2022-08-02T20:26:59.366Z,100740.63
2022-08-02T20:29:45.070Z,100741.69
2022-08-02T20:32:22.656Z,100741.00
2022-08-02T20:38:00.479Z,100739.78
2022-08-02T20:40:27.976Z,100751.50
2022-08-02T20:42:56.265Z,100752.69
2022-08-02T20:45:27.074Z,100758.69
2022-08-02T20:47:55.825Z,100755.88
2022-08-02T20:50:50.871Z,100751.56
2022-08-02T20:53:23.669Z,100753.88
2022-08-02T20:55:55.327Z,100754.00
2022-08-02T20:58:27.405Z,100751.09
2022-08-02T21:01:00.138Z,100751.81
2022-08-02T21:03:39.251Z,100749.84
2022-08-02T21:06:09.869Z,100748.75
2022-08-02T21:08:41.084Z,100745.91
2022-08-02T21:11:12.721Z,100757.09
2022-08-02T21:13:47.418Z,100744.75
2022-08-02T21:16:30.561Z,100741.81
2022-08-02T21:19:00.090Z,100753.03
2022-08-02T21:21:30.046Z,100747.34
2022-08-02T21:24:01.768Z,100746.91
2022-08-02T21:26:32.178Z,100746.75
2022-08-02T21:29:03.483Z,100747.88
2022-08-02T21:31:36.157Z,100748.31
2022-08-02T21:34:21.751Z,100752.31
2022-08-02T21:36:55.243Z,100749.59
2022-08-02T21:39:24.010Z,100742.53
2022-08-02T21:41:52.009Z,100752.78
2022-08-02T21:44:22.391Z,100756.88
2022-08-02T21:46:53.211Z,100761.19
2022-08-02T21:49:27.117Z,100763.59
2022-08-02T21:52:11.654Z,100767.56
2022-08-02T21:54:40.820Z,100766.03
2022-08-02T21:57:15.563Z,100760.94
2022-08-02T21:59:52.736Z,100764.47
2022-08-02T22:02:30.674Z,100766.47
2022-08-02T22:05:03.217Z,100774.81
2022-08-02T22:07:38.387Z,100777.22
2022-08-02T22:10:09.523Z,100777.34
2022-08-02T22:12:38.498Z,100773.94
2022-08-02T22:15:10.168Z,100773.09
2022-08-02T22:17:52.893Z,100776.28
2022-08-02T22:20:29.292Z,100773.38
2022-08-02T22:22:58.046Z,100781.41
2022-08-02T22:25:36.922Z,100778.00
2022-08-02T22:28:38.256Z,100776.78
2022-08-02T22:30:59.943Z,100782.38
2022-08-02T22:34:00.148Z,100787.69
2022-08-02T22:36:31.063Z,100787.69
2022-08-02T22:39:00.029Z,100795.44
2022-08-02T22:42:01.938Z,100796.00
2022-08-02T22:44:18.378Z,100793.16
2022-08-02T22:46:50.010Z,100784.19
2022-08-02T22:49:38.117Z,100785.94
2022-08-02T22:52:07.730Z,100791.78
2022-08-02T22:54:36.302Z,100786.16
2022-08-02T22:57:06.417Z,100789.84
2022-08-02T22:58:55.697Z,100740.75
2022-08-02T22:59:39.042Z,100784.63
2022-08-02T23:02:09.925Z,100786.88
2022-08-02T23:04:38.566Z,100789.91
2022-08-02T23:07:06.603Z,100789.66
2022-08-02T23:09:34.883Z,100796.38
2022-08-02T23:12:03.464Z,100796.22
2022-08-02T23:14:31.461Z,100797.13
2022-08-02T23:17:18.203Z,100783.91
2022-08-02T23:19:52.049Z,100790.75
2022-08-02T23:22:29.376Z,100795.06
2022-08-02T23:24:59.528Z,100793.41
2022-08-02T23:27:28.680Z,100790.41
2022-08-02T23:29:57.001Z,100792.19
2022-08-02T23:32:26.222Z,100794.91
2022-08-02T23:34:56.491Z,100803.19
2022-08-02T23:37:25.793Z,100801.09
2022-08-02T23:39:53.850Z,100800.09
2022-08-02T23:42:25.423Z,100796.72
2022-08-02T23:44:54.061Z,100791.03
2022-08-02T23:47:22.292Z,100794.94
2022-08-02T23:49:50.762Z,100799.44
2022-08-02T23:52:19.126Z,100802.84
2022-08-02T23:54:47.689Z,100801.72
2022-08-02T23:57:20.743Z,100803.25
2022-08-02T23:59:52.711Z,100803.94
